sensor_id;sensor_type;location;lat;lon;timestamp;P1;durP1;ratioP1;P2;durP2;ratioP2
20067;SDS011;10194;50.824;7.134;2024-03-17T00:01:31;56.57;;;47.23;;
20067;SDS011;10194;50.824;7.134;2024-03-17T00:03:57;56.27;;;47.13;;
20067;SDS011;10194;50.824;7.134;2024-03-17T00:06:24;55.70;;;46.63;;
20067;SDS011;10194;50.824;7.134;2024-03-17T00:08:49;55.27;;;46.53;;
20067;SDS011;10194;50.824;7.134;2024-03-17T00:11:15;55.70;;;46.80;;
20067;SDS011;10194;50.824;7.134;2024-03-17T00:13:41;55.10;;;46.60;;
20067;SDS011;10194;50.824;7.134;2024-03-17T00:16:07;55.37;;;46.80;;
20067;SDS011;10194;50.824;7.134;2024-03-17T00:18:33;56.00;;;47.00;;
20067;SDS011;10194;50.824;7.134;2024-03-17T00:20:59;55.40;;;46.60;;
20067;SDS011;10194;50.824;7.134;2024-03-17T00:23:25;53.43;;;45.73;;
20067;SDS011;10194;50.824;7.134;2024-03-17T00:25:51;55.83;;;46.87;;
20067;SDS011;10194;50.824;7.134;2024-03-17T00:28:16;55.60;;;46.80;;
20067;SDS011;10194;50.824;7.134;2024-03-17T00:30:42;54.50;;;46.30;;
20067;SDS011;10194;50.824;7.134;2024-03-17T00:33:08;54.03;;;46.33;;
20067;SDS011;10194;50.824;7.134;2024-03-17T00:35:35;54.90;;;46.27;;
20067;SDS011;10194;50.824;7.134;2024-03-17T00:38:01;55.20;;;46.63;;
20067;SDS011;10194;50.824;7.134;2024-03-17T00:40:34;55.73;;;46.73;;
20067;SDS011;10194;50.824;7.134;2024-03-17T00:43:02;56.23;;;47.10;;
20067;SDS011;10194;50.824;7.134;2024-03-17T00:45:28;54.50;;;46.37;;
20067;SDS011;10194;50.824;7.134;2024-03-17T00:47:54;54.20;;;46.13;;
20067;SDS011;10194;50.824;7.134;2024-03-17T00:50:20;54.80;;;46.53;;
20067;SDS011;10194;50.824;7.134;2024-03-17T00:52:46;54.27;;;46.20;;
20067;SDS011;10194;50.824;7.134;2024-03-17T00:55:11;53.47;;;46.03;;
20067;SDS011;10194;50.824;7.134;2024-03-17T00:57:39;55.00;;;46.57;;
20067;SDS011;10194;50.824;7.134;2024-03-17T01:00:06;54.40;;;46.37;;
20067;SDS011;10194;50.824;7.134;2024-03-17T01:02:36;54.47;;;46.53;;
20067;SDS011;10194;50.824;7.134;2024-03-17T01:05:02;54.47;;;46.43;;
20067;SDS011;10194;50.824;7.134;2024-03-17T01:07:32;54.27;;;46.33;;
20067;SDS011;10194;50.824;7.134;2024-03-17T01:09:58;54.57;;;46.37;;
20067;SDS011;10194;50.824;7.134;2024-03-17T01:12:24;55.30;;;46.73;;
20067;SDS011;10194;50.824;7.134;2024-03-17T01:14:51;54.27;;;46.33;;
20067;SDS011;10194;50.824;7.134;2024-03-17T01:17:17;54.03;;;46.20;;
20067;SDS011;10194;50.824;7.134;2024-03-17T01:19:44;59.67;;;49.10;;
20067;SDS011;10194;50.824;7.134;2024-03-17T01:22:10;54.77;;;46.67;;
20067;SDS011;10194;50.824;7.134;2024-03-17T01:24:36;54.00;;;46.37;;
20067;SDS011;10194;50.824;7.134;2024-03-17T01:27:04;55.17;;;47.07;;
20067;SDS011;10194;50.824;7.134;2024-03-17T01:29:31;54.20;;;46.60;;
20067;SDS011;10194;50.824;7.134;2024-03-17T01:31:57;54.53;;;46.73;;
20067;SDS011;10194;50.824;7.134;2024-03-17T01:34:23;54.00;;;46.73;;
20067;SDS011;10194;50.824;7.134;2024-03-17T01:36:48;54.37;;;46.87;;
20067;SDS011;10194;50.824;7.134;2024-03-17T01:39:14;53.10;;;46.10;;
20067;SDS011;10194;50.824;7.134;2024-03-17T01:41:41;53.40;;;46.33;;
20067;SDS011;10194;50.824;7.134;2024-03-17T01:44:22;53.97;;;46.90;;
20067;SDS011;10194;50.824;7.134;2024-03-17T01:46:51;54.77;;;46.97;;
20067;SDS011;10194;50.824;7.134;2024-03-17T01:49:17;54.20;;;46.67;;
20067;SDS011;10194;50.824;7.134;2024-03-17T01:51:44;53.20;;;45.97;;
20067;SDS011;10194;50.824;7.134;2024-03-17T01:54:12;53.80;;;46.63;;
20067;SDS011;10194;50.824;7.134;2024-03-17T01:56:38;54.27;;;46.60;;
20067;SDS011;10194;50.824;7.134;2024-03-17T01:59:05;55.07;;;46.97;;
20067;SDS011;10194;50.824;7.134;2024-03-17T02:01:35;53.87;;;46.80;;
20067;SDS011;10194;50.824;7.134;2024-03-17T02:04:02;54.73;;;47.23;;
20067;SDS011;10194;50.824;7.134;2024-03-17T02:06:30;54.20;;;46.37;;
20067;SDS011;10194;50.824;7.134;2024-03-17T02:08:56;55.17;;;47.00;;
20067;SDS011;10194;50.824;7.134;2024-03-17T02:11:29;55.10;;;47.10;;
20067;SDS011;10194;50.824;7.134;2024-03-17T02:13:57;54.33;;;46.50;;
20067;SDS011;10194;50.824;7.134;2024-03-17T02:16:25;53.73;;;46.33;;
20067;SDS011;10194;50.824;7.134;2024-03-17T02:18:55;53.87;;;46.53;;
20067;SDS011;10194;50.824;7.134;2024-03-17T02:21:21;53.90;;;46.27;;
20067;SDS011;10194;50.824;7.134;2024-03-17T02:23:52;52.97;;;46.30;;
20067;SDS011;10194;50.824;7.134;2024-03-17T02:26:19;54.13;;;46.60;;
20067;SDS011;10194;50.824;7.134;2024-03-17T02:28:46;53.47;;;46.30;;
20067;SDS011;10194;50.824;7.134;2024-03-17T02:31:13;55.97;;;48.27;;
20067;SDS011;10194;50.824;7.134;2024-03-17T02:33:40;54.50;;;46.93;;
20067;SDS011;10194;50.824;7.134;2024-03-17T02:36:08;53.27;;;46.50;;
20067;SDS011;10194;50.824;7.134;2024-03-17T02:38:36;53.17;;;46.77;;
20067;SDS011;10194;50.824;7.134;2024-03-17T02:41:22;54.30;;;47.47;;
20067;SDS011;10194;50.824;7.134;2024-03-17T02:43:48;54.07;;;47.33;;
20067;SDS011;10194;50.824;7.134;2024-03-17T02:46:15;54.47;;;47.70;;
20067;SDS011;10194;50.824;7.134;2024-03-17T02:48:43;54.00;;;47.00;;
20067;SDS011;10194;50.824;7.134;2024-03-17T02:51:14;55.03;;;48.07;;
20067;SDS011;10194;50.824;7.134;2024-03-17T02:53:44;54.07;;;47.43;;
20067;SDS011;10194;50.824;7.134;2024-03-17T02:56:11;54.60;;;47.63;;
20067;SDS011;10194;50.824;7.134;2024-03-17T02:58:41;54.33;;;47.83;;
20067;SDS011;10194;50.824;7.134;2024-03-17T03:01:07;54.33;;;47.73;;
20067;SDS011;10194;50.824;7.134;2024-03-17T03:03:34;53.37;;;47.10;;
20067;SDS011;10194;50.824;7.134;2024-03-17T03:06:01;54.07;;;47.60;;
20067;SDS011;10194;50.824;7.134;2024-03-17T03:08:32;54.60;;;48.47;;
20067;SDS011;10194;50.824;7.134;2024-03-17T03:10:58;56.07;;;49.97;;
20067;SDS011;10194;50.824;7.134;2024-03-17T03:13:26;59.80;;;53.50;;
20067;SDS011;10194;50.824;7.134;2024-03-17T03:15:52;57.47;;;51.27;;
20067;SDS011;10194;50.824;7.134;2024-03-17T03:18:18;58.10;;;51.90;;
20067;SDS011;10194;50.824;7.134;2024-03-17T03:20:49;58.50;;;52.33;;
20067;SDS011;10194;50.824;7.134;2024-03-17T03:23:17;59.77;;;53.47;;
20067;SDS011;10194;50.824;7.134;2024-03-17T03:25:42;60.43;;;54.13;;
20067;SDS011;10194;50.824;7.134;2024-03-17T03:28:08;59.17;;;52.93;;
20067;SDS011;10194;50.824;7.134;2024-03-17T03:30:38;58.17;;;51.97;;
20067;SDS011;10194;50.824;7.134;2024-03-17T03:33:04;57.33;;;51.13;;
20067;SDS011;10194;50.824;7.134;2024-03-17T03:35:30;55.40;;;49.40;;
20067;SDS011;10194;50.824;7.134;2024-03-17T03:37:56;61.37;;;54.97;;
20067;SDS011;10194;50.824;7.134;2024-03-17T03:40:22;55.63;;;49.53;;
20067;SDS011;10194;50.824;7.134;2024-03-17T03:42:50;55.80;;;49.77;;
20067;SDS011;10194;50.824;7.134;2024-03-17T03:45:15;56.37;;;50.27;;
20067;SDS011;10194;50.824;7.134;2024-03-17T03:47:41;56.67;;;50.57;;
20067;SDS011;10194;50.824;7.134;2024-03-17T03:50:15;56.07;;;49.97;;
20067;SDS011;10194;50.824;7.134;2024-03-17T03:52:45;57.63;;;51.43;;
20067;SDS011;10194;50.824;7.134;2024-03-17T03:55:11;57.83;;;51.63;;
20067;SDS011;10194;50.824;7.134;2024-03-17T03:57:41;59.47;;;53.17;;
20067;SDS011;10194;50.824;7.134;2024-03-17T04:00:07;58.80;;;52.57;;
20067;SDS011;10194;50.824;7.134;2024-03-17T04:02:40;59.43;;;53.20;;
20067;SDS011;10194;50.824;7.134;2024-03-17T04:05:07;58.33;;;52.10;;
20067;SDS011;10194;50.824;7.134;2024-03-17T04:07:34;58.50;;;52.30;;
20067;SDS011;10194;50.824;7.134;2024-03-17T04:10:04;60.00;;;53.70;;
20067;SDS011;10194;50.824;7.134;2024-03-17T04:12:31;60.90;;;54.60;;
20067;SDS011;10194;50.824;7.134;2024-03-17T04:14:57;60.20;;;53.90;;
20067;SDS011;10194;50.824;7.134;2024-03-17T04:17:24;59.60;;;53.33;;
20067;SDS011;10194;50.824;7.134;2024-03-17T04:19:51;61.03;;;54.50;;
20067;SDS011;10194;50.824;7.134;2024-03-17T04:22:18;60.87;;;54.47;;
20067;SDS011;10194;50.824;7.134;2024-03-17T04:24:48;57.73;;;51.73;;
20067;SDS011;10194;50.824;7.134;2024-03-17T04:27:28;59.53;;;53.33;;
20067;SDS011;10194;50.824;7.134;2024-03-17T04:29:54;58.20;;;52.20;;
20067;SDS011;10194;50.824;7.134;2024-03-17T04:32:24;61.10;;;54.73;;
20067;SDS011;10194;50.824;7.134;2024-03-17T04:34:55;59.97;;;53.67;;
20067;SDS011;10194;50.824;7.134;2024-03-17T04:37:21;58.93;;;52.73;;
20067;SDS011;10194;50.824;7.134;2024-03-17T04:39:47;63.37;;;56.43;;
20067;SDS011;10194;50.824;7.134;2024-03-17T04:42:14;60.37;;;53.93;;
20067;SDS011;10194;50.824;7.134;2024-03-17T04:44:42;61.13;;;54.80;;
20067;SDS011;10194;50.824;7.134;2024-03-17T04:47:08;61.00;;;54.70;;
20067;SDS011;10194;50.824;7.134;2024-03-17T04:49:35;59.43;;;53.33;;
20067;SDS011;10194;50.824;7.134;2024-03-17T04:52:02;60.00;;;53.63;;
20067;SDS011;10194;50.824;7.134;2024-03-17T04:54:29;58.77;;;52.57;;
20067;SDS011;10194;50.824;7.134;2024-03-17T04:56:56;57.70;;;51.60;;
20067;SDS011;10194;50.824;7.134;2024-03-17T04:59:22;57.57;;;51.43;;
20067;SDS011;10194;50.824;7.134;2024-03-17T05:01:47;56.43;;;50.33;;
20067;SDS011;10194;50.824;7.134;2024-03-17T05:04:13;57.63;;;51.43;;
20067;SDS011;10194;50.824;7.134;2024-03-17T05:06:40;58.17;;;51.97;;
20067;SDS011;10194;50.824;7.134;2024-03-17T05:09:12;59.53;;;53.13;;
20067;SDS011;10194;50.824;7.134;2024-03-17T05:11:38;57.90;;;51.77;;
20067;SDS011;10194;50.824;7.134;2024-03-17T05:14:07;59.43;;;53.17;;
20067;SDS011;10194;50.824;7.134;2024-03-17T05:16:34;59.50;;;53.20;;
20067;SDS011;10194;50.824;7.134;2024-03-17T05:19:00;60.20;;;53.83;;
20067;SDS011;10194;50.824;7.134;2024-03-17T05:21:25;60.90;;;54.50;;
20067;SDS011;10194;50.824;7.134;2024-03-17T05:23:55;61.57;;;55.20;;
20067;SDS011;10194;50.824;7.134;2024-03-17T05:26:22;61.17;;;54.83;;
20067;SDS011;10194;50.824;7.134;2024-03-17T05:28:49;60.27;;;53.97;;
20067;SDS011;10194;50.824;7.134;2024-03-17T05:31:16;60.47;;;54.27;;
20067;SDS011;10194;50.824;7.134;2024-03-17T05:33:43;60.17;;;53.93;;
20067;SDS011;10194;50.824;7.134;2024-03-17T05:36:12;59.13;;;52.93;;
20067;SDS011;10194;50.824;7.134;2024-03-17T05:38:37;58.93;;;52.80;;
20067;SDS011;10194;50.824;7.134;2024-03-17T05:41:04;59.40;;;53.10;;
20067;SDS011;10194;50.824;7.134;2024-03-17T05:43:34;59.23;;;53.03;;
20067;SDS011;10194;50.824;7.134;2024-03-17T05:46:03;58.77;;;52.57;;
20067;SDS011;10194;50.824;7.134;2024-03-17T05:48:34;60.43;;;54.07;;
20067;SDS011;10194;50.824;7.134;2024-03-17T05:51:04;59.60;;;53.30;;
20067;SDS011;10194;50.824;7.134;2024-03-17T05:53:30;59.00;;;52.70;;
20067;SDS011;10194;50.824;7.134;2024-03-17T05:55:59;60.30;;;53.93;;
20067;SDS011;10194;50.824;7.134;2024-03-17T05:58:26;58.57;;;52.27;;
20067;SDS011;10194;50.824;7.134;2024-03-17T06:00:52;58.73;;;52.47;;
20067;SDS011;10194;50.824;7.134;2024-03-17T06:03:18;57.93;;;51.73;;
20067;SDS011;10194;50.824;7.134;2024-03-17T06:05:44;59.57;;;53.27;;
20067;SDS011;10194;50.824;7.134;2024-03-17T06:08:11;61.53;;;55.13;;
20067;SDS011;10194;50.824;7.134;2024-03-17T06:10:38;60.97;;;54.67;;
20067;SDS011;10194;50.824;7.134;2024-03-17T06:13:08;60.80;;;54.47;;
20067;SDS011;10194;50.824;7.134;2024-03-17T06:15:38;59.77;;;53.47;;
20067;SDS011;10194;50.824;7.134;2024-03-17T06:18:04;58.13;;;51.93;;
20067;SDS011;10194;50.824;7.134;2024-03-17T06:20:34;58.23;;;51.93;;
20067;SDS011;10194;50.824;7.134;2024-03-17T06:23:00;59.33;;;53.03;;
20067;SDS011;10194;50.824;7.134;2024-03-17T06:25:26;58.30;;;52.10;;
20067;SDS011;10194;50.824;7.134;2024-03-17T06:27:53;60.17;;;53.87;;
20067;SDS011;10194;50.824;7.134;2024-03-17T06:30:19;58.80;;;52.60;;
20067;SDS011;10194;50.824;7.134;2024-03-17T06:32:46;57.80;;;51.60;;
20067;SDS011;10194;50.824;7.134;2024-03-17T06:35:12;58.17;;;51.80;;
20067;SDS011;10194;50.824;7.134;2024-03-17T06:37:43;58.90;;;52.60;;
20067;SDS011;10194;50.824;7.134;2024-03-17T06:40:13;58.57;;;52.27;;
20067;SDS011;10194;50.824;7.134;2024-03-17T06:42:40;59.13;;;52.87;;
20067;SDS011;10194;50.824;7.134;2024-03-17T06:45:06;58.80;;;52.50;;
20067;SDS011;10194;50.824;7.134;2024-03-17T06:47:38;60.70;;;54.30;;
20067;SDS011;10194;50.824;7.134;2024-03-17T06:50:09;60.43;;;54.13;;
20067;SDS011;10194;50.824;7.134;2024-03-17T06:52:35;58.50;;;52.20;;
20067;SDS011;10194;50.824;7.134;2024-03-17T06:55:01;57.53;;;50.40;;
20067;SDS011;10194;50.824;7.134;2024-03-17T06:57:27;58.00;;;49.87;;
20067;SDS011;10194;50.824;7.134;2024-03-17T06:59:53;64.47;;;52.87;;
20067;SDS011;10194;50.824;7.134;2024-03-17T07:02:19;59.53;;;50.80;;
20067;SDS011;10194;50.824;7.134;2024-03-17T07:04:45;58.93;;;49.93;;
20067;SDS011;10194;50.824;7.134;2024-03-17T07:07:12;59.63;;;50.63;;
20067;SDS011;10194;50.824;7.134;2024-03-17T07:09:39;64.13;;;52.80;;
20067;SDS011;10194;50.824;7.134;2024-03-17T07:12:09;59.87;;;50.43;;
20067;SDS011;10194;50.824;7.134;2024-03-17T07:14:38;59.97;;;50.43;;
20067;SDS011;10194;50.824;7.134;2024-03-17T07:17:04;60.63;;;50.90;;
20067;SDS011;10194;50.824;7.134;2024-03-17T07:19:30;58.57;;;49.70;;
20067;SDS011;10194;50.824;7.134;2024-03-17T07:22:00;58.30;;;49.27;;
20067;SDS011;10194;50.824;7.134;2024-03-17T07:24:27;57.37;;;48.83;;
20067;SDS011;10194;50.824;7.134;2024-03-17T07:26:52;57.30;;;48.77;;
20067;SDS011;10194;50.824;7.134;2024-03-17T07:29:18;58.13;;;49.27;;
20067;SDS011;10194;50.824;7.134;2024-03-17T07:31:46;57.50;;;48.93;;
20067;SDS011;10194;50.824;7.134;2024-03-17T07:34:12;58.40;;;49.37;;
20067;SDS011;10194;50.824;7.134;2024-03-17T07:36:38;58.80;;;49.57;;
20067;SDS011;10194;50.824;7.134;2024-03-17T07:39:04;58.03;;;49.03;;
20067;SDS011;10194;50.824;7.134;2024-03-17T07:41:32;60.00;;;50.40;;
20067;SDS011;10194;50.824;7.134;2024-03-17T07:43:58;59.87;;;50.07;;
20067;SDS011;10194;50.824;7.134;2024-03-17T07:46:23;59.00;;;49.63;;
20067;SDS011;10194;50.824;7.134;2024-03-17T07:48:49;58.37;;;49.23;;
20067;SDS011;10194;50.824;7.134;2024-03-17T07:51:16;58.50;;;49.03;;
20067;SDS011;10194;50.824;7.134;2024-03-17T07:53:43;57.63;;;48.57;;
20067;SDS011;10194;50.824;7.134;2024-03-17T07:56:10;57.93;;;48.70;;
20067;SDS011;10194;50.824;7.134;2024-03-17T07:58:40;57.23;;;48.20;;
20067;SDS011;10194;50.824;7.134;2024-03-17T08:01:09;58.47;;;48.93;;
20067;SDS011;10194;50.824;7.134;2024-03-17T08:03:37;57.30;;;48.23;;
20067;SDS011;10194;50.824;7.134;2024-03-17T08:06:09;57.47;;;48.23;;
20067;SDS011;10194;50.824;7.134;2024-03-17T08:08:38;57.57;;;48.30;;
20067;SDS011;10194;50.824;7.134;2024-03-17T08:11:04;57.20;;;48.33;;
20067;SDS011;10194;50.824;7.134;2024-03-17T08:13:30;56.77;;;47.87;;
20067;SDS011;10194;50.824;7.134;2024-03-17T08:15:59;57.13;;;48.17;;
20067;SDS011;10194;50.824;7.134;2024-03-17T08:18:35;57.53;;;48.27;;
20067;SDS011;10194;50.824;7.134;2024-03-17T08:21:01;58.40;;;48.67;;
20067;SDS011;10194;50.824;7.134;2024-03-17T08:23:29;57.07;;;48.20;;
20067;SDS011;10194;50.824;7.134;2024-03-17T08:25:59;57.53;;;48.37;;
20067;SDS011;10194;50.824;7.134;2024-03-17T08:28:26;58.40;;;48.87;;
20067;SDS011;10194;50.824;7.134;2024-03-17T08:30:53;58.00;;;48.57;;
20067;SDS011;10194;50.824;7.134;2024-03-17T08:33:21;59.47;;;49.50;;
20067;SDS011;10194;50.824;7.134;2024-03-17T08:35:56;62.93;;;50.80;;
20067;SDS011;10194;50.824;7.134;2024-03-17T08:38:30;58.00;;;48.87;;
20067;SDS011;10194;50.824;7.134;2024-03-17T08:41:01;59.23;;;49.37;;
20067;SDS011;10194;50.824;7.134;2024-03-17T08:43:31;57.67;;;48.53;;
20067;SDS011;10194;50.824;7.134;2024-03-17T08:46:02;57.90;;;48.90;;
20067;SDS011;10194;50.824;7.134;2024-03-17T08:48:32;59.00;;;49.33;;
20067;SDS011;10194;50.824;7.134;2024-03-17T08:51:04;59.63;;;49.57;;
20067;SDS011;10194;50.824;7.134;2024-03-17T08:53:31;58.57;;;49.10;;
20067;SDS011;10194;50.824;7.134;2024-03-17T08:55:58;59.27;;;49.47;;
20067;SDS011;10194;50.824;7.134;2024-03-17T08:58:25;58.40;;;49.20;;
20067;SDS011;10194;50.824;7.134;2024-03-17T09:00:51;59.97;;;49.93;;
20067;SDS011;10194;50.824;7.134;2024-03-17T09:03:17;61.07;;;50.53;;
20067;SDS011;10194;50.824;7.134;2024-03-17T09:05:44;58.93;;;49.67;;
20067;SDS011;10194;50.824;7.134;2024-03-17T09:08:22;61.17;;;50.73;;
20067;SDS011;10194;50.824;7.134;2024-03-17T09:10:50;62.13;;;51.20;;
20067;SDS011;10194;50.824;7.134;2024-03-17T09:13:18;60.70;;;50.70;;
20067;SDS011;10194;50.824;7.134;2024-03-17T09:18:27;59.93;;;50.07;;
20067;SDS011;10194;50.824;7.134;2024-03-17T09:20:59;59.50;;;49.93;;
20067;SDS011;10194;50.824;7.134;2024-03-17T09:23:33;60.23;;;50.47;;
20067;SDS011;10194;50.824;7.134;2024-03-17T09:26:00;59.53;;;50.07;;
20067;SDS011;10194;50.824;7.134;2024-03-17T09:28:29;61.23;;;50.87;;
20067;SDS011;10194;50.824;7.134;2024-03-17T09:30:57;60.80;;;50.80;;
20067;SDS011;10194;50.824;7.134;2024-03-17T09:33:24;61.77;;;51.43;;
20067;SDS011;10194;50.824;7.134;2024-03-17T09:35:59;60.67;;;51.03;;
20067;SDS011;10194;50.824;7.134;2024-03-17T09:38:26;64.23;;;52.73;;
20067;SDS011;10194;50.824;7.134;2024-03-17T09:40:52;64.13;;;52.67;;
20067;SDS011;10194;50.824;7.134;2024-03-17T09:43:20;63.70;;;52.47;;
20067;SDS011;10194;50.824;7.134;2024-03-17T09:45:48;62.70;;;51.97;;
20067;SDS011;10194;50.824;7.134;2024-03-17T09:48:16;62.10;;;51.73;;
20067;SDS011;10194;50.824;7.134;2024-03-17T09:53:53;62.23;;;51.60;;
20067;SDS011;10194;50.824;7.134;2024-03-17T09:56:13;61.70;;;51.40;;
20067;SDS011;10194;50.824;7.134;2024-03-17T09:58:44;62.57;;;51.93;;
20067;SDS011;10194;50.824;7.134;2024-03-17T10:01:11;62.73;;;52.03;;
20067;SDS011;10194;50.824;7.134;2024-03-17T10:03:49;62.03;;;51.53;;
20067;SDS011;10194;50.824;7.134;2024-03-17T10:06:24;61.63;;;51.20;;
20067;SDS011;10194;50.824;7.134;2024-03-17T10:11:23;64.83;;;52.63;;
20067;SDS011;10194;50.824;7.134;2024-03-17T10:14:04;64.27;;;52.57;;
20067;SDS011;10194;50.824;7.134;2024-03-17T10:16:33;62.70;;;52.03;;
20067;SDS011;10194;50.824;7.134;2024-03-17T10:21:39;67.40;;;54.43;;
20067;SDS011;10194;50.824;7.134;2024-03-17T10:24:13;67.33;;;54.60;;
20067;SDS011;10194;50.824;7.134;2024-03-17T10:26:48;63.97;;;53.07;;
20067;SDS011;10194;50.824;7.134;2024-03-17T10:29:30;65.97;;;54.07;;
20067;SDS011;10194;50.824;7.134;2024-03-17T10:32:03;68.23;;;55.13;;
20067;SDS011;10194;50.824;7.134;2024-03-17T10:34:38;68.17;;;55.17;;
20067;SDS011;10194;50.824;7.134;2024-03-17T10:37:08;65.40;;;54.07;;
20067;SDS011;10194;50.824;7.134;2024-03-17T10:39:44;72.67;;;57.73;;
20067;SDS011;10194;50.824;7.134;2024-03-17T10:42:13;63.20;;;53.17;;
20067;SDS011;10194;50.824;7.134;2024-03-17T10:44:39;67.13;;;54.90;;
20067;SDS011;10194;50.824;7.134;2024-03-17T10:47:08;71.40;;;56.83;;
20067;SDS011;10194;50.824;7.134;2024-03-17T10:49:47;74.77;;;59.07;;
20067;SDS011;10194;50.824;7.134;2024-03-17T10:52:20;70.10;;;56.63;;
20067;SDS011;10194;50.824;7.134;2024-03-17T10:54:48;70.23;;;56.50;;
20067;SDS011;10194;50.824;7.134;2024-03-17T10:59:52;73.37;;;58.23;;
20067;SDS011;10194;50.824;7.134;2024-03-17T11:02:27;70.97;;;57.03;;
20067;SDS011;10194;50.824;7.134;2024-03-17T11:04:58;69.10;;;55.87;;
20067;SDS011;10194;50.824;7.134;2024-03-17T11:07:27;63.73;;;53.60;;
20067;SDS011;10194;50.824;7.134;2024-03-17T11:09:56;68.80;;;56.57;;
20067;SDS011;10194;50.824;7.134;2024-03-17T11:17:52;65.23;;;54.23;;
20067;SDS011;10194;50.824;7.134;2024-03-17T11:20:29;74.47;;;59.23;;
20067;SDS011;10194;50.824;7.134;2024-03-17T11:22:55;67.93;;;55.67;;
20067;SDS011;10194;50.824;7.134;2024-03-17T11:27:52;68.07;;;55.87;;
20067;SDS011;10194;50.824;7.134;2024-03-17T11:38:54;66.07;;;55.07;;
20067;SDS011;10194;50.824;7.134;2024-03-17T11:47:05;71.30;;;58.07;;
20067;SDS011;10194;50.824;7.134;2024-03-17T11:49:39;72.73;;;59.23;;
20067;SDS011;10194;50.824;7.134;2024-03-17T11:52:14;68.57;;;56.80;;
20067;SDS011;10194;50.824;7.134;2024-03-17T11:54:45;67.87;;;57.50;;
20067;SDS011;10194;50.824;7.134;2024-03-17T11:57:14;67.43;;;54.80;;
20067;SDS011;10194;50.824;7.134;2024-03-17T11:59:51;69.73;;;56.00;;
20067;SDS011;10194;50.824;7.134;2024-03-17T12:02:19;70.60;;;56.30;;
20067;SDS011;10194;50.824;7.134;2024-03-17T12:04:57;64.77;;;53.87;;
20067;SDS011;10194;50.824;7.134;2024-03-17T12:07:25;70.50;;;56.53;;
20067;SDS011;10194;50.824;7.134;2024-03-17T12:09:53;75.93;;;59.10;;
20067;SDS011;10194;50.824;7.134;2024-03-17T12:12:24;70.67;;;56.37;;
20067;SDS011;10194;50.824;7.134;2024-03-17T12:14:59;66.07;;;54.23;;
20067;SDS011;10194;50.824;7.134;2024-03-17T12:17:26;64.97;;;53.90;;
20067;SDS011;10194;50.824;7.134;2024-03-17T12:19:52;75.67;;;58.80;;
20067;SDS011;10194;50.824;7.134;2024-03-17T12:22:22;73.03;;;57.50;;
20067;SDS011;10194;50.824;7.134;2024-03-17T12:24:51;72.57;;;57.30;;
20067;SDS011;10194;50.824;7.134;2024-03-17T12:27:22;72.63;;;57.23;;
20067;SDS011;10194;50.824;7.134;2024-03-17T12:29:54;76.43;;;59.23;;
20067;SDS011;10194;50.824;7.134;2024-03-17T12:32:24;72.63;;;57.33;;
20067;SDS011;10194;50.824;7.134;2024-03-17T12:34:55;69.20;;;55.80;;
20067;SDS011;10194;50.824;7.134;2024-03-17T12:37:25;71.33;;;56.63;;
20067;SDS011;10194;50.824;7.134;2024-03-17T12:40:01;69.47;;;55.93;;
20067;SDS011;10194;50.824;7.134;2024-03-17T12:42:29;71.17;;;56.63;;
20067;SDS011;10194;50.824;7.134;2024-03-17T12:45:00;69.70;;;55.97;;
20067;SDS011;10194;50.824;7.134;2024-03-17T12:47:27;63.63;;;53.30;;
20067;SDS011;10194;50.824;7.134;2024-03-17T12:49:55;75.90;;;58.40;;
20067;SDS011;10194;50.824;7.134;2024-03-17T12:57:54;70.20;;;56.10;;
20067;SDS011;10194;50.824;7.134;2024-03-17T13:01:00;66.47;;;54.60;;
20067;SDS011;10194;50.824;7.134;2024-03-17T13:03:28;69.10;;;55.80;;
20067;SDS011;10194;50.824;7.134;2024-03-17T13:05:59;69.57;;;56.07;;
20067;SDS011;10194;50.824;7.134;2024-03-17T13:08:27;70.47;;;56.43;;
20067;SDS011;10194;50.824;7.134;2024-03-17T13:10:53;71.67;;;57.33;;
20067;SDS011;10194;50.824;7.134;2024-03-17T13:13:19;68.73;;;55.90;;
20067;SDS011;10194;50.824;7.134;2024-03-17T13:15:45;68.50;;;55.80;;
20067;SDS011;10194;50.824;7.134;2024-03-17T13:18:15;70.33;;;56.57;;
20067;SDS011;10194;50.824;7.134;2024-03-17T13:20:44;69.57;;;56.00;;
20067;SDS011;10194;50.824;7.134;2024-03-17T13:23:19;69.20;;;55.83;;
20067;SDS011;10194;50.824;7.134;2024-03-17T13:25:49;66.40;;;54.77;;
20067;SDS011;10194;50.824;7.134;2024-03-17T13:28:15;72.97;;;57.70;;
20067;SDS011;10194;50.824;7.134;2024-03-17T13:30:41;66.27;;;54.87;;
20067;SDS011;10194;50.824;7.134;2024-03-17T13:33:08;70.00;;;56.40;;
20067;SDS011;10194;50.824;7.134;2024-03-17T13:35:36;70.13;;;56.37;;
20067;SDS011;10194;50.824;7.134;2024-03-17T13:38:04;69.73;;;56.10;;
20067;SDS011;10194;50.824;7.134;2024-03-17T13:40:35;68.67;;;55.47;;
20067;SDS011;10194;50.824;7.134;2024-03-17T13:43:03;70.80;;;56.27;;
20067;SDS011;10194;50.824;7.134;2024-03-17T13:45:30;71.07;;;56.37;;
20067;SDS011;10194;50.824;7.134;2024-03-17T13:48:03;72.60;;;57.07;;
20067;SDS011;10194;50.824;7.134;2024-03-17T13:50:30;71.00;;;56.20;;
20067;SDS011;10194;50.824;7.134;2024-03-17T13:52:57;70.13;;;55.63;;
20067;SDS011;10194;50.824;7.134;2024-03-17T13:55:23;69.70;;;55.63;;
20067;SDS011;10194;50.824;7.134;2024-03-17T13:57:51;66.53;;;54.37;;
20067;SDS011;10194;50.824;7.134;2024-03-17T14:00:22;69.50;;;55.70;;
20067;SDS011;10194;50.824;7.134;2024-03-17T14:02:49;69.90;;;55.87;;
20067;SDS011;10194;50.824;7.134;2024-03-17T14:05:18;67.57;;;54.67;;
20067;SDS011;10194;50.824;7.134;2024-03-17T14:07:49;70.57;;;56.53;;
20067;SDS011;10194;50.824;7.134;2024-03-17T14:10:17;71.23;;;56.67;;
20067;SDS011;10194;50.824;7.134;2024-03-17T14:12:44;70.40;;;55.93;;
20067;SDS011;10194;50.824;7.134;2024-03-17T14:15:12;70.70;;;55.83;;
20067;SDS011;10194;50.824;7.134;2024-03-17T14:17:46;72.10;;;56.67;;
20067;SDS011;10194;50.824;7.134;2024-03-17T14:20:14;71.33;;;56.33;;
20067;SDS011;10194;50.824;7.134;2024-03-17T14:22:43;71.33;;;56.33;;
20067;SDS011;10194;50.824;7.134;2024-03-17T14:25:14;70.90;;;56.23;;
20067;SDS011;10194;50.824;7.134;2024-03-17T14:27:42;70.40;;;55.90;;
20067;SDS011;10194;50.824;7.134;2024-03-17T14:30:08;69.50;;;55.63;;
20067;SDS011;10194;50.824;7.134;2024-03-17T14:32:38;69.97;;;55.93;;
20067;SDS011;10194;50.824;7.134;2024-03-17T14:35:04;71.07;;;56.30;;
20067;SDS011;10194;50.824;7.134;2024-03-17T14:37:30;66.53;;;54.40;;
20067;SDS011;10194;50.824;7.134;2024-03-17T14:39:57;67.40;;;54.67;;
20067;SDS011;10194;50.824;7.134;2024-03-17T14:42:24;69.73;;;55.63;;
20067;SDS011;10194;50.824;7.134;2024-03-17T14:44:50;70.30;;;56.03;;
20067;SDS011;10194;50.824;7.134;2024-03-17T14:47:16;69.07;;;55.30;;
20067;SDS011;10194;50.824;7.134;2024-03-17T14:49:42;73.90;;;57.63;;
20067;SDS011;10194;50.824;7.134;2024-03-17T14:52:08;69.93;;;56.03;;
20067;SDS011;10194;50.824;7.134;2024-03-17T14:54:34;70.07;;;56.27;;
20067;SDS011;10194;50.824;7.134;2024-03-17T14:57:00;67.43;;;55.20;;
20067;SDS011;10194;50.824;7.134;2024-03-17T14:59:27;70.77;;;56.60;;
20067;SDS011;10194;50.824;7.134;2024-03-17T15:01:52;71.83;;;56.90;;
20067;SDS011;10194;50.824;7.134;2024-03-17T15:04:18;69.20;;;55.70;;
20067;SDS011;10194;50.824;7.134;2024-03-17T15:06:44;70.80;;;56.23;;
20067;SDS011;10194;50.824;7.134;2024-03-17T15:09:10;71.83;;;57.07;;